Smit Barbados — MSDU8 — position and weather

sailwx.info

Track history (hours):
 
Tides and Currents Weather Stations Pressure Air Temp Water Temp Dewpoint Dewpoint Depression Visibility Wind Speed Wind Dir Waves Ship Positions

Smit Barbados

Last reported at 2014-Sep-20 13:33 UTC. Time now 2014-Sep-20 14:00 UTC.
Position N 53°26' W 002°60'.

Length 30 m; draft 4.8 m.

Type: Tug. MMSI: 235055303.

Date/timePositionNaut miles runAvg speedWind from/ knotsBaromVisibWave heightAir tempDewpointWater temp
2014-Sep-20 13:33N 53°26' W 002°60'0 0.0
2014-Sep-20 12:30N 53°26' W 002°60'0 0.0
2014-Sep-20 11:32N 53°26' W 002°60'0 0.0
2014-Sep-20 10:31N 53°26' W 002°60'0 0.0
2014-Sep-20 09:33N 53°26' W 002°60'0 0.0
2014-Sep-20 08:33N 53°26' W 002°60'0 0.4
2014-Sep-20 07:33N 53°26' W 003°01'1 0.6
2014-Sep-20 06:33N 53°25' W 003°01'1 0.8
2014-Sep-20 05:31N 53°26' W 002°60'0 0.0
2014-Sep-20 04:30N 53°26' W 002°60'0 0.0
2014-Sep-20 03:27N 53°26' W 002°60'0 0.0
2014-Sep-20 02:31N 53°26' W 002°60'0 0.0
2014-Sep-20 01:32N 53°26' W 002°60'0 0.0
2014-Sep-20 00:33N 53°26' W 002°60'0 0.0
2014-Sep-19 23:31N 53°26' W 002°60'0 0.0
2014-Sep-19 22:31N 53°26' W 002°60'1 1.3
2014-Sep-19 21:32N 53°27' W 003°01'1 0.6
2014-Sep-19 20:33N 53°28' W 003°02'1 0.6
2014-Sep-19 19:33N 53°27' W 003°01'0 0.0
2014-Sep-19 18:33N 53°27' W 003°01'1 1.4
2014-Sep-19 17:33N 53°26' W 002°60'0 0.0
2014-Sep-19 16:33N 53°26' W 002°60'0 0.0
2014-Sep-19 15:31N 53°26' W 002°60'0 0.0
2014-Sep-19 14:33N 53°26' W 002°60'0 0.0
2014-Sep-19 13:33N 53°26' W 002°60'0 0.0
2014-Sep-19 12:34N 53°26' W 002°60'0 0.0
2014-Sep-19 11:34N 53°26' W 002°60'0 0.0
2014-Sep-19 10:31N 53°26' W 002°60'0 0.0
2014-Sep-19 09:30N 53°26' W 002°60'0 0.0
2014-Sep-19 08:31N 53°26' W 002°60'0 0.0
2014-Sep-19 07:28N 53°26' W 002°60'2 1.8
2014-Sep-19 06:33N 53°27' W 003°01'2 1.6
2014-Sep-19 05:33N 53°26' W 002°60'0 0.0
2014-Sep-19 04:33N 53°26' W 002°60'0 0.0
2014-Sep-19 03:33N 53°26' W 002°60'0 0.0
2014-Sep-19 02:32N 53°26' W 002°60'0 0.0
2014-Sep-19 01:33N 53°26' W 002°60'0 0.0
2014-Sep-19 00:24N 53°26' W 002°60'0 0.0
2014-Sep-18 23:32N 53°26' W 002°60'0 0.0
2014-Sep-18 22:32N 53°26' W 002°60'0 0.0
2014-Sep-18 21:32N 53°26' W 002°60'0 0.0
2014-Sep-18 20:32N 53°26' W 002°60'2 1.6
2014-Sep-18 19:33N 53°27' W 003°01'0 0.2
2014-Sep-18 18:31N 53°27' W 003°01'1 0.5
2014-Sep-18 17:33N 53°27' W 003°02'3 2.5
2014-Sep-18 16:32N 53°24' W 003°01'1 0.5
2014-Sep-18 15:31N 53°24' W 003°02'0 0.0
2014-Sep-18 14:33N 53°24' W 003°02'0 0.0
2014-Sep-18 09:33N 53°24' W 003°02'0 0.2
2014-Sep-18 08:33N 53°24' W 003°02'0 0.2
2014-Sep-18 07:33N 53°24' W 003°01'0 0.0
2014-Sep-18 06:32N 53°24' W 003°01'1 1.2
2014-Sep-18 05:33N 53°23' W 003°01'2 2.4
2014-Sep-18 04:34N 53°25' W 003°01'1 0.6
2014-Sep-18 03:34N 53°26' W 003°00'0 0.2
2014-Sep-18 02:32N 53°26' W 002°60'0 0.0
2014-Sep-18 01:33N 53°26' W 002°60'0 0.0
2014-Sep-18 00:33N 53°26' W 002°60'0 0.0
2014-Sep-17 23:33N 53°26' W 002°60'0 0.0
2014-Sep-17 22:32N 53°26' W 002°60'0 0.0
2014-Sep-17 21:33N 53°26' W 002°60'0 0.0
2014-Sep-17 20:33N 53°26' W 002°60'0 0.0
2014-Sep-17 19:33N 53°26' W 002°60'0 0.0
2014-Sep-17 18:32N 53°26' W 002°60'0 0.0
2014-Sep-17 17:33N 53°26' W 002°60'0 0.0
2014-Sep-17 16:32N 53°26' W 002°60'0 0.0
2014-Sep-17 15:33N 53°26' W 002°60'0 0.0
2014-Sep-17 14:31N 53°26' W 002°60'0 0.0
2014-Sep-17 13:33N 53°26' W 002°60'0 0.0
2014-Sep-17 12:33N 53°26' W 002°60'0 0.0
2014-Sep-17 11:32N 53°26' W 002°60'0 0.0
2014-Sep-17 10:32N 53°26' W 002°60'0 0.0
2014-Sep-17 09:31N 53°26' W 002°60'0 0.0
2014-Sep-17 08:32N 53°26' W 002°60'0 0.0
2014-Sep-17 07:33N 53°26' W 002°60'0 0.0
2014-Sep-17 06:32N 53°26' W 002°60'0 0.0
2014-Sep-17 05:30N 53°26' W 002°60'0 0.0
2014-Sep-17 04:33N 53°26' W 002°60'0 0.0
2014-Sep-17 03:33N 53°26' W 002°60'0 0.0
2014-Sep-17 02:33N 53°26' W 002°60'0 0.0
2014-Sep-17 01:31N 53°26' W 002°60'0 0.0
2014-Sep-17 00:33N 53°26' W 002°60'0 0.0
2014-Sep-16 23:33N 53°26' W 002°60'0 0.0
2014-Sep-16 22:33N 53°26' W 002°60'0 0.0
2014-Sep-16 21:33N 53°26' W 002°60'0 0.0
2014-Sep-16 20:33N 53°26' W 002°60'0 0.0
2014-Sep-16 19:33N 53°26' W 002°60'0 0.0
2014-Sep-16 18:33N 53°26' W 002°60'0 0.3
2014-Sep-16 17:34N 53°26' W 003°00'2 1.6
2014-Sep-16 16:33N 53°28' W 003°01'1 0.7
2014-Sep-16 15:33N 53°27' W 003°01'0 0.3
2014-Sep-16 14:33N 53°27' W 003°01'0 0.4
2014-Sep-16 13:34N 53°27' W 003°01'1 1.2
2014-Sep-16 12:33N 53°26' W 003°00'0 0.3
2014-Sep-16 11:33N 53°26' W 002°60'0 0.0
2014-Sep-16 10:33N 53°26' W 002°60'0 0.0
2014-Sep-16 09:33N 53°26' W 002°60'0 0.0
2014-Sep-16 08:33N 53°26' W 002°60'0 0.0
2014-Sep-16 07:33N 53°26' W 002°60'0 0.0
2014-Sep-16 06:32N 53°26' W 002°60'0 0.0
2014-Sep-16 05:33N 53°26' W 002°60'0 0.0
2014-Sep-16 04:32N 53°26' W 002°60'0 0.0
2014-Sep-16 03:33N 53°26' W 002°60'2 1.7
2014-Sep-16 02:33N 53°27' W 003°01'0 0.3
2014-Sep-16 01:33N 53°27' W 003°01'2 1.5
2014-Sep-16 00:33N 53°28' W 003°03'3 2.6
2014-Sep-15 23:33N 53°26' W 003°00'0 0.2
2014-Sep-15 22:33N 53°26' W 002°60'0 0.0
2014-Sep-15 21:33N 53°26' W 002°60'0 0.0
2014-Sep-15 20:33N 53°26' W 002°60'0 0.0
2014-Sep-15 19:33N 53°26' W 002°60'0 0.0
2014-Sep-15 18:33N 53°26' W 002°60'0 0.0
2014-Sep-15 17:33N 53°26' W 002°60'2 1.5
2014-Sep-15 16:33N 53°27' W 003°01'0 0.2
2014-Sep-15 15:33N 53°27' W 003°01'0 0.0
2014-Sep-15 14:33N 53°27' W 003°01'1 0.5
2014-Sep-15 13:33N 53°27' W 003°01'1 1.2
2014-Sep-15 12:33N 53°26' W 002°60'0 0.0
2014-Sep-15 11:33N 53°26' W 002°60'0 0.0
2014-Sep-15 10:32N 53°26' W 002°60'0 0.0
2014-Sep-15 09:33N 53°26' W 002°60'0 0.0
2014-Sep-15 08:33N 53°26' W 002°60'0 0.0
2014-Sep-15 07:33N 53°26' W 002°60'0 0.0
2014-Sep-15 06:33N 53°26' W 002°60'0 0.2
2014-Sep-15 05:33N 53°26' W 003°00'2 1.9
2014-Sep-15 04:33N 53°28' W 003°02'1 0.7
2014-Sep-15 03:33N 53°27' W 003°01'0 0.1
2014-Sep-15 02:33N 53°27' W 003°01'1 0.7
2014-Sep-15 01:33N 53°28' W 003°02'2 2.0
2014-Sep-15 00:33N 53°26' W 003°00'0 0.2
2014-Sep-14 23:32N 53°26' W 002°60'0 0.0
2014-Sep-14 22:27N 53°26' W 002°60'0 0.0
2014-Sep-14 21:33N 53°26' W 002°60'0 0.0
2014-Sep-14 20:33N 53°26' W 002°60'0 0.0
2014-Sep-14 19:33N 53°26' W 002°60'  
2014-Sep-11 10:33N 53°29' W 003°04'3 2.5
2014-Sep-11 09:26N 53°27' W 003°01'0 0.4
2014-Sep-11 08:31N 53°27' W 003°01'1 0.3
2014-Sep-11 04:21N 53°26' W 002°60'  
Track history (hours):
 
Tides and Currents Weather Stations Pressure Air Temp Water Temp Dewpoint Dewpoint Depression Visibility Wind Speed Wind Dir Waves Ship Positions

Smit Barbados

Last reported at 2014-Sep-20 13:33 UTC. Time now 2014-Sep-20 14:00 UTC.
Position N 53°26' W 002°60'.

Length 30 m; draft 4.8 m.

Type: Tug. MMSI: 235055303.

Date/timePositionNaut miles runAvg speedWind from/ knotsBaromVisibWave heightAir tempDewpointWater temp
2014-Sep-20 13:33N 53°26' W 002°60'0 0.0
2014-Sep-20 12:30N 53°26' W 002°60'0 0.0
2014-Sep-20 11:32N 53°26' W 002°60'0 0.0
2014-Sep-20 10:31N 53°26' W 002°60'0 0.0
2014-Sep-20 09:33N 53°26' W 002°60'0 0.0
2014-Sep-20 08:33N 53°26' W 002°60'0 0.4
2014-Sep-20 07:33N 53°26' W 003°01'1 0.6
2014-Sep-20 06:33N 53°25' W 003°01'1 0.8
2014-Sep-20 05:31N 53°26' W 002°60'0 0.0
2014-Sep-20 04:30N 53°26' W 002°60'0 0.0
2014-Sep-20 03:27N 53°26' W 002°60'0 0.0
2014-Sep-20 02:31N 53°26' W 002°60'0 0.0
2014-Sep-20 01:32N 53°26' W 002°60'0 0.0
2014-Sep-20 00:33N 53°26' W 002°60'0 0.0
2014-Sep-19 23:31N 53°26' W 002°60'0 0.0
2014-Sep-19 22:31N 53°26' W 002°60'1 1.3
2014-Sep-19 21:32N 53°27' W 003°01'1 0.6
2014-Sep-19 20:33N 53°28' W 003°02'1 0.6
2014-Sep-19 19:33N 53°27' W 003°01'0 0.0
2014-Sep-19 18:33N 53°27' W 003°01'1 1.4
2014-Sep-19 17:33N 53°26' W 002°60'0 0.0
2014-Sep-19 16:33N 53°26' W 002°60'0 0.0
2014-Sep-19 15:31N 53°26' W 002°60'0 0.0
2014-Sep-19 14:33N 53°26' W 002°60'0 0.0
2014-Sep-19 13:33N 53°26' W 002°60'0 0.0
2014-Sep-19 12:34N 53°26' W 002°60'0 0.0
2014-Sep-19 11:34N 53°26' W 002°60'0 0.0
2014-Sep-19 10:31N 53°26' W 002°60'0 0.0
2014-Sep-19 09:30N 53°26' W 002°60'0 0.0
2014-Sep-19 08:31N 53°26' W 002°60'0 0.0
2014-Sep-19 07:28N 53°26' W 002°60'2 1.8
2014-Sep-19 06:33N 53°27' W 003°01'2 1.6
2014-Sep-19 05:33N 53°26' W 002°60'0 0.0
2014-Sep-19 04:33N 53°26' W 002°60'0 0.0
2014-Sep-19 03:33N 53°26' W 002°60'0 0.0
2014-Sep-19 02:32N 53°26' W 002°60'0 0.0
2014-Sep-19 01:33N 53°26' W 002°60'0 0.0
2014-Sep-19 00:24N 53°26' W 002°60'0 0.0
2014-Sep-18 23:32N 53°26' W 002°60'0 0.0
2014-Sep-18 22:32N 53°26' W 002°60'0 0.0
2014-Sep-18 21:32N 53°26' W 002°60'0 0.0
2014-Sep-18 20:32N 53°26' W 002°60'2 1.6
2014-Sep-18 19:33N 53°27' W 003°01'0 0.2
2014-Sep-18 18:31N 53°27' W 003°01'1 0.5
2014-Sep-18 17:33N 53°27' W 003°02'3 2.5
2014-Sep-18 16:32N 53°24' W 003°01'1 0.5
2014-Sep-18 15:31N 53°24' W 003°02'0 0.0
2014-Sep-18 14:33N 53°24' W 003°02'0 0.0
2014-Sep-18 09:33N 53°24' W 003°02'0 0.2
2014-Sep-18 08:33N 53°24' W 003°02'0 0.2
2014-Sep-18 07:33N 53°24' W 003°01'0 0.0
2014-Sep-18 06:32N 53°24' W 003°01'1 1.2
2014-Sep-18 05:33N 53°23' W 003°01'2 2.4
2014-Sep-18 04:34N 53°25' W 003°01'1 0.6
2014-Sep-18 03:34N 53°26' W 003°00'0 0.2
2014-Sep-18 02:32N 53°26' W 002°60'0 0.0
2014-Sep-18 01:33N 53°26' W 002°60'0 0.0
2014-Sep-18 00:33N 53°26' W 002°60'0 0.0
2014-Sep-17 23:33N 53°26' W 002°60'0 0.0
2014-Sep-17 22:32N 53°26' W 002°60'0 0.0
2014-Sep-17 21:33N 53°26' W 002°60'0 0.0
2014-Sep-17 20:33N 53°26' W 002°60'0 0.0
2014-Sep-17 19:33N 53°26' W 002°60'0 0.0
2014-Sep-17 18:32N 53°26' W 002°60'0 0.0
2014-Sep-17 17:33N 53°26' W 002°60'0 0.0
2014-Sep-17 16:32N 53°26' W 002°60'0 0.0
2014-Sep-17 15:33N 53°26' W 002°60'0 0.0
2014-Sep-17 14:31N 53°26' W 002°60'0 0.0
2014-Sep-17 13:33N 53°26' W 002°60'0 0.0
2014-Sep-17 12:33N 53°26' W 002°60'0 0.0
2014-Sep-17 11:32N 53°26' W 002°60'0 0.0
2014-Sep-17 10:32N 53°26' W 002°60'0 0.0
2014-Sep-17 09:31N 53°26' W 002°60'0 0.0
2014-Sep-17 08:32N 53°26' W 002°60'0 0.0
2014-Sep-17 07:33N 53°26' W 002°60'0 0.0
2014-Sep-17 06:32N 53°26' W 002°60'0 0.0
2014-Sep-17 05:30N 53°26' W 002°60'0 0.0
2014-Sep-17 04:33N 53°26' W 002°60'0 0.0
2014-Sep-17 03:33N 53°26' W 002°60'0 0.0
2014-Sep-17 02:33N 53°26' W 002°60'0 0.0
2014-Sep-17 01:31N 53°26' W 002°60'0 0.0
2014-Sep-17 00:33N 53°26' W 002°60'0 0.0
2014-Sep-16 23:33N 53°26' W 002°60'0 0.0
2014-Sep-16 22:33N 53°26' W 002°60'0 0.0
2014-Sep-16 21:33N 53°26' W 002°60'0 0.0
2014-Sep-16 20:33N 53°26' W 002°60'0 0.0
2014-Sep-16 19:33N 53°26' W 002°60'0 0.0
2014-Sep-16 18:33N 53°26' W 002°60'0 0.3
2014-Sep-16 17:34N 53°26' W 003°00'2 1.6
2014-Sep-16 16:33N 53°28' W 003°01'1 0.7
2014-Sep-16 15:33N 53°27' W 003°01'0 0.3
2014-Sep-16 14:33N 53°27' W 003°01'0 0.4
2014-Sep-16 13:34N 53°27' W 003°01'1 1.2
2014-Sep-16 12:33N 53°26' W 003°00'0 0.3
2014-Sep-16 11:33N 53°26' W 002°60'0 0.0
2014-Sep-16 10:33N 53°26' W 002°60'0 0.0
2014-Sep-16 09:33N 53°26' W 002°60'0 0.0
2014-Sep-16 08:33N 53°26' W 002°60'0 0.0
2014-Sep-16 07:33N 53°26' W 002°60'0 0.0
2014-Sep-16 06:32N 53°26' W 002°60'0 0.0
2014-Sep-16 05:33N 53°26' W 002°60'0 0.0
2014-Sep-16 04:32N 53°26' W 002°60'0 0.0
2014-Sep-16 03:33N 53°26' W 002°60'2 1.7
2014-Sep-16 02:33N 53°27' W 003°01'0 0.3
2014-Sep-16 01:33N 53°27' W 003°01'2 1.5
2014-Sep-16 00:33N 53°28' W 003°03'3 2.6
2014-Sep-15 23:33N 53°26' W 003°00'0 0.2
2014-Sep-15 22:33N 53°26' W 002°60'0 0.0
2014-Sep-15 21:33N 53°26' W 002°60'0 0.0
2014-Sep-15 20:33N 53°26' W 002°60'0 0.0
2014-Sep-15 19:33N 53°26' W 002°60'0 0.0
2014-Sep-15 18:33N 53°26' W 002°60'0 0.0
2014-Sep-15 17:33N 53°26' W 002°60'2 1.5
2014-Sep-15 16:33N 53°27' W 003°01'0 0.2
2014-Sep-15 15:33N 53°27' W 003°01'0 0.0
2014-Sep-15 14:33N 53°27' W 003°01'1 0.5
2014-Sep-15 13:33N 53°27' W 003°01'1 1.2
2014-Sep-15 12:33N 53°26' W 002°60'0 0.0
2014-Sep-15 11:33N 53°26' W 002°60'0 0.0
2014-Sep-15 10:32N 53°26' W 002°60'0 0.0
2014-Sep-15 09:33N 53°26' W 002°60'0 0.0
2014-Sep-15 08:33N 53°26' W 002°60'0 0.0
2014-Sep-15 07:33N 53°26' W 002°60'0 0.0
2014-Sep-15 06:33N 53°26' W 002°60'0 0.2
2014-Sep-15 05:33N 53°26' W 003°00'2 1.9
2014-Sep-15 04:33N 53°28' W 003°02'1 0.7
2014-Sep-15 03:33N 53°27' W 003°01'0 0.1
2014-Sep-15 02:33N 53°27' W 003°01'1 0.7
2014-Sep-15 01:33N 53°28' W 003°02'2 2.0
2014-Sep-15 00:33N 53°26' W 003°00'0 0.2
2014-Sep-14 23:32N 53°26' W 002°60'0 0.0
2014-Sep-14 22:27N 53°26' W 002°60'0 0.0
2014-Sep-14 21:33N 53°26' W 002°60'0 0.0
2014-Sep-14 20:33N 53°26' W 002°60'0 0.0
2014-Sep-14 19:33N 53°26' W 002°60'  
2014-Sep-11 10:33N 53°29' W 003°04'3 2.5
2014-Sep-11 09:26N 53°27' W 003°01'0 0.4
2014-Sep-11 08:31N 53°27' W 003°01'1 0.3
2014-Sep-11 04:21N 53°26' W 002°60'  

Dump ship's entire track history